Time;durP1;ratioP1;P1;durP2;ratioP2;P2;SDS_P1;SDS_P2;PMS_P1;PMS_P2;Temp;Humidity;BMP_temperature;BMP_pressure;BME280_temperature;BME280_humidity;BME280_pressure;Samples;Min_cycle;Max_cycle;Signal;HPM_P1;HPM_P2
2022/08/02 00:01:15;;;;;;;;;;;;;;;-140.72;100.00;52488.25;4978201;28;19918;-70
2022/08/02 00:03:40;;;;;;;;;;;;;;;-140.72;100.00;52500.44;4977384;28;20374;-70
2022/08/02 00:06:07;;;;;;;;;;;;;;;-140.72;100.00;52508.56;4975779;28;20140;-70
2022/08/02 00:08:32;;;;;;;;;;;;;;;-140.72;100.00;52488.25;4970075;28;19919;-71
2022/08/02 00:10:57;;;;;;;;;;;;;;;-140.72;100.00;52494.34;4973133;28;19945;-70
2022/08/02 00:13:22;;;;;;;;;;;;;;;-140.72;100.00;52522.75;4978183;28;20366;-70
2022/08/02 00:15:48;;;;;;;;;;;;;;;-140.72;100.00;52512.59;4978036;28;20479;-70
2022/08/02 00:18:13;;;;;;;;;;;;;;;-140.72;100.00;52488.25;4977453;28;19922;-70
2022/08/02 00:20:38;;;;;;;;;;;;;;;-140.72;100.00;52492.31;4976139;28;19918;-70
2022/08/02 00:23:04;;;;;;;;;;;;;;;-140.72;100.00;52520.72;4966753;28;19918;-70
2022/08/02 00:25:29;;;;;;;;;;;;;;;-140.72;100.00;52488.25;4976127;28;19941;-70
2022/08/02 00:27:54;;;;;;;;;;;;;;;-140.72;100.00;52490.28;4967221;28;19918;-70
2022/08/02 00:30:19;;;;;;;;;;;;;;;-140.72;100.00;52514.63;4980026;28;19919;-70
2022/08/02 00:32:45;;;;;;;;;;;;;;;-140.72;100.00;52514.63;4980127;28;19969;-70
2022/08/02 00:35:10;;;;;;;;;;;;;;;-140.72;100.00;52496.38;4967608;28;20378;-70
2022/08/02 00:37:39;;;;;;;;;;;;;;;-140.72;100.00;52498.41;4980307;28;19925;-70
2022/08/02 00:40:05;;;;;;;;;;;;;;;-140.72;100.00;52500.44;4979323;28;20290;-69
2022/08/02 00:42:30;;;;;;;;;;;;;;;-140.72;100.00;52500.44;4969500;28;19922;-70
2022/08/02 00:44:55;;;;;;;;;;;;;;;-140.72;100.00;52536.97;4980319;28;19926;-70
2022/08/02 00:47:20;;;;;;;;;;;;;;;-140.72;100.00;52488.25;4981368;28;20024;-70
2022/08/02 00:49:46;;;;;;;;;;;;;;;-140.72;100.00;52522.75;4979024;28;20017;-71
2022/08/02 00:52:11;;;;;;;;;;;;;;;-140.72;100.00;52496.38;4975190;28;19922;-71
2022/08/02 00:54:37;;;;;;;;;;;;;;;-140.72;100.00;52506.53;4989967;28;19922;-71
2022/08/02 00:57:02;;;;;;;;;;;;;;;-140.72;100.00;52508.56;4989419;28;19918;-70
2022/08/02 00:59:27;;;;;;;;;;;;;;;-140.72;100.00;52516.66;4978810;28;19919;-71
2022/08/02 01:01:54;;;;;;;;;;;;;;;-140.72;100.00;52498.41;4976924;28;19926;-70
2022/08/02 01:04:19;;;;;;;;;;;;;;;-140.72;100.00;52524.78;4988215;28;19918;-70
2022/08/02 01:06:44;;;;;;;;;;;;;;;-140.72;100.00;52541.03;4983612;28;19918;-70
2022/08/02 01:09:10;;;;;;;;;;;;;;;-140.72;100.00;52482.16;4982026;28;19918;-70
2022/08/02 01:11:35;;;;;;;;;;;;;;;-140.72;100.00;52508.56;4977380;28;19922;-70
2022/08/02 01:14:03;;;;;;;;;;;;;;;-140.72;100.00;52512.59;4976193;28;19918;-71
2022/08/02 01:16:30;;;;;;;;;;;;;;;-140.72;100.00;52530.88;4965485;28;19922;-70
2022/08/02 01:19:01;;;;;;;;;;;;;;;-140.72;100.00;52500.44;4976556;28;19918;-70
2022/08/02 01:21:26;;;;;;;;;;;;;;;-140.72;100.00;52516.66;4988381;28;20332;-71
2022/08/02 01:23:57;;;;;;;;;;;;;;;-140.72;100.00;52539.00;4977170;28;19918;-71
2022/08/02 01:26:41;;;;;;;;;;;;;;;-140.72;100.00;52498.41;4985699;28;19918;-70
2022/08/02 01:29:12;;;;;;;;;;;;;;;-140.72;100.00;52536.97;4980688;28;20270;-70
2022/08/02 01:31:41;;;;;;;;;;;;;;;-140.72;100.00;52512.59;4986188;28;19918;-70
2022/08/02 01:34:25;;;;;;;;;;;;;;;-140.72;100.00;52557.25;4979632;28;19918;-70
2022/08/02 01:36:56;;;;;;;;;;;;;;;-140.72;100.00;52520.72;4992692;28;19969;-70
2022/08/02 01:39:29;;;;;;;;;;;;;;;-140.72;100.00;52514.63;4975046;28;19918;-70
2022/08/02 01:41:56;;;;;;;;;;;;;;;-140.72;100.00;52522.75;4979897;28;19922;-70
2022/08/02 01:44:24;;;;;;;;;;;;;;;-140.72;100.00;52532.91;4981066;28;19918;-70
2022/08/02 01:46:50;;;;;;;;;;;;;;;-140.72;100.00;52518.69;4980736;28;20008;-70
2022/08/02 01:49:17;;;;;;;;;;;;;;;-140.72;100.00;52534.94;4971124;28;20288;-70
2022/08/02 01:54:29;;;;;;;;;;;;;;;-140.72;100.00;52532.91;4982373;28;19929;-70
2022/08/02 01:57:05;;;;;;;;;;;;;;;-140.72;100.00;52571.47;4968029;28;19925;-70
2022/08/02 01:59:31;;;;;;;;;;;;;;;-140.72;100.00;52484.19;4991175;28;19928;-70
2022/08/02 02:01:57;;;;;;;;;;;;;;;-140.72;100.00;52536.97;4967029;28;19918;-70
2022/08/02 02:04:24;;;;;;;;;;;;;;;-140.72;100.00;52549.13;4968501;28;19918;-70
2022/08/02 02:06:49;;;;;;;;;;;;;;;-140.72;100.00;52528.84;4992275;28;19918;-71
2022/08/02 02:09:16;;;;;;;;;;;;;;;-140.72;100.00;52518.69;4982590;28;20407;-70
2022/08/02 02:11:45;;;;;;;;;;;;;;;-140.72;100.00;52492.31;4988681;28;19918;-71
2022/08/02 02:14:11;;;;;;;;;;;;;;;-140.72;100.00;52502.47;4991146;28;19918;-70
2022/08/02 02:16:39;;;;;;;;;;;;;;;-140.72;100.00;52524.78;4997885;28;20284;-71
2022/08/02 02:19:15;;;;;;;;;;;;;;;-140.72;100.00;52547.09;4987621;28;19941;-70
2022/08/02 02:21:40;;;;;;;;;;;;;;;-140.72;100.00;52522.75;4969773;28;20092;-70
2022/08/02 02:24:05;;;;;;;;;;;;;;;-140.72;100.00;52520.72;4972962;28;19976;-70
2022/08/02 02:26:32;;;;;;;;;;;;;;;-140.72;100.00;52508.56;4975180;28;19949;-71
2022/08/02 02:29:00;;;;;;;;;;;;;;;-140.72;100.00;52484.19;4972216;28;19925;-70
2022/08/02 02:31:27;;;;;;;;;;;;;;;-140.72;100.00;52520.72;4978624;28;20393;-70
2022/08/02 02:33:57;;;;;;;;;;;;;;;-140.72;100.00;52536.97;5082609;23;19951;-66
2022/08/02 02:36:23;;;;;;;;;;;;;;;-140.72;100.00;52528.84;4978818;28;19976;-66
2022/08/02 02:38:50;;;;;;;;;;;;;;;-140.72;100.00;52528.84;4963254;28;19922;-65
2022/08/02 02:41:17;;;;;;;;;;;;;;;-140.72;100.00;52543.03;4966604;28;20440;-66
2022/08/02 02:43:43;;;;;;;;;;;;;;;-140.72;100.00;52522.75;4973327;28;19918;-67
2022/08/02 02:46:09;;;;;;;;;;;;;;;-140.72;100.00;52496.38;4985643;28;19918;-66
2022/08/02 02:48:35;;;;;;;;;;;;;;;-140.72;100.00;52534.94;4981220;28;19918;-66
2022/08/02 02:51:02;;;;;;;;;;;;;;;-140.72;100.00;52526.81;4979959;28;20020;-66
2022/08/02 02:53:28;;;;;;;;;;;;;;;-140.72;100.00;52539.00;4960451;28;19942;-66
2022/08/02 02:55:54;;;;;;;;;;;;;;;-140.72;100.00;52557.25;4961757;28;19925;-66
2022/08/02 02:58:20;;;;;;;;;;;;;;;-140.72;100.00;52526.81;4976480;28;19918;-66
2022/08/02 03:03:29;;;;;;;;;;;;;;;-140.72;100.00;52516.66;4976672;28;19941;-65
2022/08/02 03:05:55;;;;;;;;;;;;;;;-140.72;100.00;52528.84;4968013;28;19919;-65
2022/08/02 03:08:20;;;;;;;;;;;;;;;-140.72;100.00;52524.78;4960937;28;19918;-66
2022/08/02 03:10:45;;;;;;;;;;;;;;;-140.72;100.00;52510.59;4961950;28;20016;-65
2022/08/02 03:13:11;;;;;;;;;;;;;;;-140.72;100.00;52522.75;4969487;28;20319;-66
2022/08/02 03:15:38;;;;;;;;;;;;;;;-140.72;100.00;52551.16;4990366;28;20050;-67
2022/08/02 03:18:04;;;;;;;;;;;;;;;-140.72;100.00;52516.66;4976197;28;19918;-66
2022/08/02 03:20:30;;;;;;;;;;;;;;;-140.72;100.00;52498.41;4974579;28;20010;-66
2022/08/02 03:22:55;;;;;;;;;;;;;;;-140.72;100.00;52520.72;4966685;28;19937;-66
2022/08/02 03:25:20;;;;;;;;;;;;;;;-140.72;100.00;52536.97;4960885;28;19919;-66
2022/08/02 03:27:47;;;;;;;;;;;;;;;-140.72;100.00;52563.34;4969666;28;19993;-67
2022/08/02 03:30:13;;;;;;;;;;;;;;;-140.72;100.00;52524.78;4975230;28;19926;-67
2022/08/02 03:32:39;;;;;;;;;;;;;;;-140.72;100.00;52524.78;4987540;28;19918;-66
2022/08/02 03:35:05;;;;;;;;;;;;;;;-140.72;100.00;52514.63;4957323;29;19922;-66
2022/08/02 03:37:32;;;;;;;;;;;;;;;-140.72;100.00;52508.56;4943727;28;19918;-67
2022/08/02 03:39:58;;;;;;;;;;;;;;;-140.72;100.00;52539.00;4957106;28;19958;-66
2022/08/02 03:42:25;;;;;;;;;;;;;;;-140.72;100.00;52528.84;4943914;28;19958;-66
2022/08/02 03:44:52;;;;;;;;;;;;;;;-140.72;100.00;52547.09;4955854;29;19919;-66
2022/08/02 03:47:17;;;;;;;;;;;;;;;-140.72;100.00;52551.16;4950898;28;19919;-67
2022/08/02 03:49:43;;;;;;;;;;;;;;;-140.72;100.00;52528.84;4956536;28;19933;-68
2022/08/02 03:52:08;;;;;;;;;;;;;;;-140.72;100.00;52551.16;4952394;28;19919;-65
2022/08/02 03:54:34;;;;;;;;;;;;;;;-140.72;100.00;52528.84;4953190;28;19918;-66
2022/08/02 03:56:59;;;;;;;;;;;;;;;-140.72;100.00;52532.91;4945341;29;19962;-66
2022/08/02 03:59:24;;;;;;;;;;;;;;;-140.72;100.00;52549.13;4955874;29;19968;-67
2022/08/02 04:01:50;;;;;;;;;;;;;;;-140.72;100.00;52528.84;4957019;29;19918;-67
2022/08/02 04:04:15;;;;;;;;;;;;;;;-140.72;100.00;52518.69;4956507;29;19918;-65
2022/08/02 04:06:40;;;;;;;;;;;;;;;-140.72;100.00;52514.63;4958170;29;20331;-67
2022/08/02 04:09:05;;;;;;;;;;;;;;;-140.72;100.00;52532.91;4956621;29;19949;-66
2022/08/02 04:11:31;;;;;;;;;;;;;;;-140.72;100.00;52551.16;4955538;28;20358;-66
2022/08/02 04:14:07;;;;;;;;;;;;;;;-140.72;100.00;52510.59;4956604;29;20309;-66
2022/08/02 04:16:32;;;;;;;;;;;;;;;-140.72;100.00;52534.94;4956250;29;20072;-67
2022/08/02 04:19:00;;;;;;;;;;;;;;;-140.72;100.00;52534.94;4943966;29;19923;-67
2022/08/02 04:21:27;;;;;;;;;;;;;;;-140.72;100.00;52536.97;4954240;28;19919;-67
2022/08/02 04:23:57;;;;;;;;;;;;;;;-140.72;100.00;52545.06;4954287;28;19926;-66
2022/08/02 04:26:23;;;;;;;;;;;;;;;-140.72;100.00;52581.59;4953672;29;20413;-68
2022/08/02 04:28:49;;;;;;;;;;;;;;;-140.72;100.00;52536.97;4953238;29;19923;-67
2022/08/02 04:31:16;;;;;;;;;;;;;;;-140.72;100.00;52518.69;4950748;28;19929;-67
2022/08/02 04:33:41;;;;;;;;;;;;;;;-140.72;100.00;52549.13;4955690;28;19929;-68
2022/08/02 04:36:07;;;;;;;;;;;;;;;-140.72;100.00;52543.03;4947731;29;19982;-67
2022/08/02 04:38:32;;;;;;;;;;;;;;;-140.72;100.00;52502.47;4952062;29;19957;-67
2022/08/02 04:40:57;;;;;;;;;;;;;;;-140.72;100.00;52541.03;4956016;29;19922;-67
2022/08/02 04:43:23;;;;;;;;;;;;;;;-140.72;100.00;52557.25;4953013;28;19918;-69
2022/08/02 04:45:50;;;;;;;;;;;;;;;-140.72;100.00;52545.06;4943068;29;20391;-67
2022/08/02 04:48:15;;;;;;;;;;;;;;;-140.72;100.00;52539.00;4945652;29;19994;-67
2022/08/02 04:50:40;;;;;;;;;;;;;;;-140.72;100.00;52526.81;4954557;29;19972;-67
2022/08/02 04:53:06;;;;;;;;;;;;;;;-140.72;100.00;52563.34;4955231;29;19930;-68
2022/08/02 04:55:31;;;;;;;;;;;;;;;-140.72;100.00;52549.13;4959018;29;20397;-71
2022/08/02 04:57:56;;;;;;;;;;;;;;;-140.72;100.00;52514.63;4956533;29;19919;-68
2022/08/02 05:00:22;;;;;;;;;;;;;;;-140.72;100.00;52516.66;4954981;28;19922;-69
2022/08/02 05:02:48;;;;;;;;;;;;;;;-140.72;100.00;52506.53;4954732;29;19918;-67
2022/08/02 05:05:14;;;;;;;;;;;;;;;-140.72;100.00;52526.81;4974710;28;19962;-68
2022/08/02 05:07:40;;;;;;;;;;;;;;;-140.72;100.00;52508.56;4963484;29;20057;-67
2022/08/02 05:10:05;;;;;;;;;;;;;;;-140.72;100.00;52532.91;4966690;29;19990;-67
2022/08/02 05:12:30;;;;;;;;;;;;;;;-140.72;100.00;52457.81;4964348;28;19918;-67
2022/08/02 05:14:56;;;;;;;;;;;;;;;-140.72;100.00;52512.59;4966317;28;19969;-68
2022/08/02 05:17:21;;;;;;;;;;;;;;;-140.72;100.00;52500.44;4962321;28;19922;-68
2022/08/02 05:19:46;;;;;;;;;;;;;;;-140.72;100.00;52555.22;4963816;28;19929;-67
2022/08/02 05:22:11;;;;;;;;;;;;;;;-140.72;100.00;52520.72;4967429;28;19933;-67
2022/08/02 05:24:36;;;;;;;;;;;;;;;-140.72;100.00;52514.63;4966609;29;20016;-69
2022/08/02 05:27:02;;;;;;;;;;;;;;;-140.72;100.00;52492.31;4966628;28;19947;-68
2022/08/02 05:29:27;;;;;;;;;;;;;;;-140.72;100.00;52516.66;4970437;29;19918;-68
2022/08/02 05:31:53;;;;;;;;;;;;;;;-140.72;100.00;52508.56;4970551;28;19922;-68
2022/08/02 05:34:18;;;;;;;;;;;;;;;-140.72;100.00;52532.91;4968147;28;19922;-68
2022/08/02 05:36:44;;;;;;;;;;;;;;;-140.72;100.00;52500.44;4969304;29;19952;-67
2022/08/02 05:39:09;;;;;;;;;;;;;;;-140.72;100.00;52443.63;4980511;28;20012;-68
2022/08/02 05:41:35;;;;;;;;;;;;;;;-140.72;100.00;52506.53;4965622;28;19919;-69
2022/08/02 05:44:01;;;;;;;;;;;;;;;-140.72;100.00;52496.38;4967281;29;20338;-70
2022/08/02 05:46:26;;;;;;;;;;;;;;;-140.72;100.00;52484.19;4966266;28;19989;-69
2022/08/02 05:48:51;;;;;;;;;;;;;;;-140.72;100.00;52494.34;4967425;28;19930;-69
2022/08/02 05:51:22;;;;;;;;;;;;;;;-140.72;100.00;52461.88;4969555;28;19918;-69
2022/08/02 05:53:47;;;;;;;;;;;;;;;-140.72;100.00;52439.56;4970998;28;19919;-69
2022/08/02 05:56:22;;;;;;;;;;;;;;;-140.72;100.00;52474.06;4968790;29;20469;-69
2022/08/02 05:59:03;;;;;;;;;;;;;;;-140.72;100.00;52478.13;4966515;28;19919;-68
2022/08/02 06:01:32;;;;;;;;;;;;;;;-140.72;100.00;52463.91;4955419;28;19930;-71
2022/08/02 06:03:59;;;;;;;;;;;;;;;-140.72;100.00;52463.91;4950972;29;19936;-68
2022/08/02 06:06:25;;;;;;;;;;;;;;;-140.72;100.00;52435.50;4956145;28;19922;-69
2022/08/02 06:08:54;;;;;;;;;;;;;;;-140.72;100.00;52470.00;4959969;28;19927;-68
2022/08/02 06:11:21;;;;;;;;;;;;;;;-140.72;100.00;52459.84;4964083;28;19926;-71
2022/08/02 06:13:47;;;;;;;;;;;;;;;-140.72;100.00;52411.16;4962758;29;20263;-68
2022/08/02 06:16:12;;;;;;;;;;;;;;;-140.72;100.00;52451.72;4960160;28;20033;-68
2022/08/02 06:18:40;;;;;;;;;;;;;;;-140.72;100.00;52439.56;4959665;29;20353;-69
2022/08/02 06:21:05;;;;;;;;;;;;;;;-140.72;100.00;52433.47;4955827;29;19950;-67
2022/08/02 06:23:31;;;;;;;;;;;;;;;-140.72;100.00;52443.63;4954935;29;20009;-67
2022/08/02 06:25:57;;;;;;;;;;;;;;;-140.72;100.00;52447.69;4958261;28;20001;-67
2022/08/02 06:28:23;;;;;;;;;;;;;;;-140.72;100.00;52419.28;4958076;29;20293;-67
2022/08/02 06:30:49;;;;;;;;;;;;;;;-140.72;100.00;52449.72;4958197;29;20364;-68
2022/08/02 06:33:14;;;;;;;;;;;;;;;-140.72;100.00;52403.03;4956688;28;19930;-67
2022/08/02 06:35:45;;;;;;;;;;;;;;;-140.72;100.00;52386.81;4958070;29;19965;-67
2022/08/02 06:38:17;;;;;;;;;;;;;;;-140.72;100.00;52407.09;4954511;29;19918;-66
2022/08/02 06:40:44;;;;;;;;;;;;;;;-140.72;100.00;52443.63;4954579;29;20380;-68
2022/08/02 06:43:16;;;;;;;;;;;;;;;-140.72;100.00;52407.09;4956176;29;19919;-67
2022/08/02 06:45:41;;;;;;;;;;;;;;;-140.72;100.00;52396.94;4956967;29;19985;-68
2022/08/02 06:48:06;;;;;;;;;;;;;;;-140.72;100.00;52419.28;4954694;29;19930;-67
2022/08/02 06:50:32;;;;;;;;;;;;;;;-140.72;100.00;52429.41;4954359;29;19950;-68
2022/08/02 06:52:57;;;;;;;;;;;;;;;-140.72;100.00;52443.63;4959916;29;19942;-72
2022/08/02 06:55:22;;;;;;;;;;;;;;;-140.72;100.00;52429.41;4957821;29;19938;-68
2022/08/02 06:57:48;;;;;;;;;;;;;;;-140.72;100.00;52390.84;4960031;28;19927;-67
2022/08/02 07:00:13;;;;;;;;;;;;;;;-140.72;100.00;52433.47;4959365;29;20033;-67
2022/08/02 07:02:39;;;;;;;;;;;;;;;-140.72;100.00;52396.94;4955489;29;20013;-66
2022/08/02 07:05:05;;;;;;;;;;;;;;;-140.72;100.00;52407.09;4953890;29;19919;-66
2022/08/02 07:07:30;;;;;;;;;;;;;;;-140.72;100.00;52419.28;4956005;29;19969;-66
2022/08/02 07:09:56;;;;;;;;;;;;;;;-140.72;100.00;52392.88;4956402;29;19987;-66
2022/08/02 07:12:21;;;;;;;;;;;;;;;-140.72;100.00;52394.91;4952842;29;19923;-66
2022/08/02 07:14:46;;;;;;;;;;;;;;;-140.72;100.00;52348.25;4954139;29;20350;-66
2022/08/02 07:17:12;;;;;;;;;;;;;;;-140.72;100.00;52368.53;4954727;29;19934;-65
2022/08/02 07:19:37;;;;;;;;;;;;;;;-140.72;100.00;52356.38;4953026;29;19939;-65
2022/08/02 07:22:03;;;;;;;;;;;;;;;-140.72;100.00;52358.41;4951210;29;20355;-67
2022/08/02 07:24:28;;;;;;;;;;;;;;;-140.72;100.00;52401.00;4954544;29;20025;-66
2022/08/02 07:26:53;;;;;;;;;;;;;;;-140.72;100.00;52358.41;4951484;29;20005;-68
2022/08/02 07:29:18;;;;;;;;;;;;;;;-140.72;100.00;52382.75;4951299;28;20026;-67
2022/08/02 07:31:44;;;;;;;;;;;;;;;-140.72;100.00;52358.41;4954705;28;19922;-66
2022/08/02 07:34:10;;;;;;;;;;;;;;;-140.72;100.00;52352.31;4952192;29;19922;-65
2022/08/02 07:36:35;;;;;;;;;;;;;;;-140.72;100.00;52309.69;4958176;29;19918;-67
2022/08/02 07:39:00;;;;;;;;;;;;;;;-140.72;100.00;52325.94;4953618;29;19930;-66
2022/08/02 07:41:26;;;;;;;;;;;;;;;-140.72;100.00;52366.50;4955873;29;19973;-69
2022/08/02 07:43:51;;;;;;;;;;;;;;;-140.72;100.00;52350.28;4959813;29;20005;-65
2022/08/02 07:46:16;;;;;;;;;;;;;;;-140.72;100.00;52366.50;4954817;29;19919;-67
2022/08/02 07:48:42;;;;;;;;;;;;;;;-140.72;100.00;52354.34;4951276;29;19980;-66
2022/08/02 07:51:07;;;;;;;;;;;;;;;-140.72;100.00;52303.59;4948336;29;19995;-67
2022/08/02 07:53:32;;;;;;;;;;;;;;;-140.72;100.00;52330.00;4957562;29;19958;-66
2022/08/02 07:55:57;;;;;;;;;;;;;;;-140.72;100.00;52309.69;4955743;29;19929;-68
2022/08/02 07:58:22;;;;;;;;;;;;;;;-140.72;100.00;52297.53;4958910;29;19919;-69
2022/08/02 08:00:48;;;;;;;;;;;;;;;-140.72;100.00;52305.63;4956507;29;19918;-67
2022/08/02 08:03:13;;;;;;;;;;;;;;;-140.72;100.00;52289.41;4954588;29;19947;-66
2022/08/02 08:05:38;;;;;;;;;;;;;;;-140.72;100.00;52295.50;4954823;29;19930;-68
2022/08/02 08:08:04;;;;;;;;;;;;;;;-140.72;100.00;52281.28;4956557;29;20014;-69
2022/08/02 08:10:31;;;;;;;;;;;;;;;-140.72;100.00;52248.81;4953515;29;19968;-67
2022/08/02 08:12:56;;;;;;;;;;;;;;;-140.72;100.00;52307.66;4956718;28;20025;-68
2022/08/02 08:15:21;;;;;;;;;;;;;;;-140.72;100.00;52254.91;4957420;29;20013;-67
2022/08/02 08:17:46;;;;;;;;;;;;;;;-140.72;100.00;52265.06;4956386;29;20389;-68
2022/08/02 08:20:11;;;;;;;;;;;;;;;-140.72;100.00;52273.19;4948950;29;19922;-69
2022/08/02 08:22:37;;;;;;;;;;;;;;;-140.72;100.00;52265.06;4957934;29;20282;-69
2022/08/02 08:25:02;;;;;;;;;;;;;;;-140.72;100.00;52291.44;4957879;29;20274;-68
2022/08/02 08:27:27;;;;;;;;;;;;;;;-140.72;100.00;52279.25;4955886;28;19934;-70
2022/08/02 08:29:53;;;;;;;;;;;;;;;-140.72;100.00;52273.19;4960056;29;19918;-68
2022/08/02 08:32:18;;;;;;;;;;;;;;;-140.72;100.00;52228.53;4958549;28;20328;-68
2022/08/02 08:34:44;;;;;;;;;;;;;;;-140.72;100.00;52277.22;4959522;28;19922;-68
2022/08/02 08:37:09;;;;;;;;;;;;;;;-140.72;100.00;52248.81;4949632;29;20014;-68
2022/08/02 08:39:34;;;;;;;;;;;;;;;-140.72;100.00;52236.66;4951315;29;19986;-68
2022/08/02 08:42:01;;;;;;;;;;;;;;;-140.72;100.00;52214.34;4956943;29;19930;-68
2022/08/02 08:44:27;;;;;;;;;;;;;;;-140.72;100.00;52163.59;4960247;28;20254;-68
2022/08/02 08:46:53;;;;;;;;;;;;;;;-140.72;100.00;52183.91;4951079;28;19926;-69
2022/08/02 08:49:24;;;;;;;;;;;;;;;-140.72;100.00;52151.44;4951935;29;19965;-68
2022/08/02 08:51:53;;;;;;;;;;;;;;;-140.72;100.00;52145.34;4950332;28;20370;-68
2022/08/02 08:54:21;;;;;;;;;;;;;;;-140.72;100.00;52175.78;4958822;29;20068;-68
2022/08/02 08:56:46;;;;;;;;;;;;;;;-140.72;100.00;52155.50;4955960;29;20005;-69
2022/08/02 08:59:12;;;;;;;;;;;;;;;-140.72;100.00;52212.31;4957650;28;19961;-70
2022/08/02 09:01:37;;;;;;;;;;;;;;;-140.72;100.00;52171.72;4953835;29;19934;-67
2022/08/02 09:04:02;;;;;;;;;;;;;;;-140.72;100.00;52143.31;4955944;29;19966;-69
2022/08/02 09:06:28;;;;;;;;;;;;;;;-140.72;100.00;52161.56;4949347;29;19927;-68
2022/08/02 09:08:53;;;;;;;;;;;;;;;-140.72;75.01;52175.78;4953663;29;19918;-67
2022/08/02 09:11:22;;;;;;;;;;;;;;;-140.72;84.59;52171.72;4959235;29;20009;-69
2022/08/02 09:14:05;;;;;;;;;;;;;;;-140.72;53.23;52183.91;4954086;29;19929;-69
2022/08/02 09:16:40;;;;;;;;;;;;;;;-140.72;58.77;52127.09;4956635;29;19926;-68
2022/08/02 09:19:35;;;;;;;;;;;;;;;-140.72;37.07;52155.50;4960451;29;19919;-68
2022/08/02 09:22:04;;;;;;;;;;;;;;;-140.72;30.51;52123.03;4940227;29;19918;-68
2022/08/02 09:24:39;;;;;;;;;;;;;;;-140.72;26.77;52189.97;4954745;29;19929;-68
2022/08/02 09:27:09;;;;;;;;;;;;;;;-140.72;37.57;52118.97;4949752;29;19919;-68
2022/08/02 09:29:35;;;;;;;;;;;;;;;-140.72;32.00;52125.06;4939492;28;19919;-68
2022/08/02 09:32:03;;;;;;;;;;;;;;;-140.72;38.93;52118.97;4949932;29;19918;-69
2022/08/02 09:34:42;;;;;;;;;;;;;;;-140.72;19.64;52096.66;4958814;28;19933;-68
2022/08/02 09:37:20;;;;;;;;;;;;;;;-140.72;1.08;52072.31;4946700;29;19919;-68
2022/08/02 09:39:45;;;;;;;;;;;;;;;-140.72;0.00;52133.16;4958401;29;19922;-70
2022/08/02 09:42:11;;;;;;;;;;;;;;;-140.72;5.16;52092.59;4948928;29;19976;-67
2022/08/02 09:44:36;;;;;;;;;;;;;;;-140.72;4.73;52102.75;4955280;29;19934;-67
2022/08/02 09:47:12;;;;;;;;;;;;;;;-140.72;0.00;52106.78;4948457;28;19923;-67
2022/08/02 09:49:44;;;;;;;;;;;;;;;-140.72;0.00;52080.41;4957356;29;19919;-69
2022/08/02 09:52:09;;;;;;;;;;;;;;;-140.72;0.00;52052.00;4959778;28;19918;-70
2022/08/02 09:54:37;;;;;;;;;;;;;;;-140.72;0.00;52049.97;4956446;29;19947;-68
2022/08/02 09:57:03;;;;;;;;;;;;;;;-140.72;0.00;52052.00;4955108;29;20353;-68
2022/08/02 09:59:28;;;;;;;;;;;;;;;-140.72;0.00;52027.66;4961134;28;19922;-68
2022/08/02 10:01:55;;;;;;;;;;;;;;;-140.72;0.00;52029.69;4960829;29;20290;-68
2022/08/02 10:04:21;;;;;;;;;;;;;;;-140.72;0.00;52037.81;4951401;29;19919;-67
2022/08/02 10:06:47;;;;;;;;;;;;;;;-140.72;0.00;51976.94;4955839;29;19918;-67
2022/08/02 10:09:12;;;;;;;;;;;;;;;-140.72;0.00;51987.09;4958217;29;19933;-67
2022/08/02 10:11:38;;;;;;;;;;;;;;;-140.72;0.00;51966.81;4952092;29;20390;-67
2022/08/02 10:14:04;;;;;;;;;;;;;;;-140.72;0.00;51954.63;4963613;29;19918;-67
2022/08/02 10:16:32;;;;;;;;;;;;;;;-140.72;0.00;51930.28;4960976;28;20359;-67
2022/08/02 10:18:59;;;;;;;;;;;;;;;-140.72;0.00;51954.63;4951260;28;19929;-69
2022/08/02 10:21:44;;;;;;;;;;;;;;;-140.72;0.00;51964.78;4960103;29;19958;-68
2022/08/02 10:24:10;;;;;;;;;;;;;;;-140.72;0.00;51910.00;4959359;29;19919;-68
2022/08/02 10:26:38;;;;;;;;;;;;;;;-140.72;0.00;51942.44;4956624;29;20061;-67
2022/08/02 10:29:03;;;;;;;;;;;;;;;-140.72;0.00;51950.56;4957773;28;19919;-68
2022/08/02 10:31:35;;;;;;;;;;;;;;;-140.72;0.00;51976.94;4956286;29;19934;-67
2022/08/02 10:34:02;;;;;;;;;;;;;;;-140.72;0.00;51952.59;4951178;29;20302;-66
2022/08/02 10:36:29;;;;;;;;;;;;;;;-140.72;0.00;51940.41;4961648;29;19929;-67
2022/08/02 10:38:57;;;;;;;;;;;;;;;-140.72;0.00;51907.97;4960110;29;20314;-68
2022/08/02 10:41:41;;;;;;;;;;;;;;;-140.72;0.00;51889.69;4958017;29;20302;-67
2022/08/02 10:44:07;;;;;;;;;;;;;;;-140.72;0.00;51881.59;4955839;28;19986;-67
2022/08/02 10:46:34;;;;;;;;;;;;;;;-140.72;0.00;51849.13;4962337;29;20021;-68
2022/08/02 10:49:11;;;;;;;;;;;;;;;-140.72;0.00;51824.78;4954150;28;19941;-69
2022/08/02 10:51:55;;;;;;;;;;;;;;;-140.72;0.00;51871.44;4958344;29;19918;-69
2022/08/02 10:54:22;;;;;;;;;;;;;;;-140.72;0.00;51859.28;4961016;29;19933;-68
2022/08/02 10:56:48;;;;;;;;;;;;;;;-140.72;0.00;51847.09;4960217;29;20350;-69
2022/08/02 10:59:22;;;;;;;;;;;;;;;-140.72;0.00;51847.09;4962744;29;19922;-69
2022/08/02 11:01:47;;;;;;;;;;;;;;;-140.72;0.00;51812.59;4963186;29;19918;-69
2022/08/02 11:04:12;;;;;;;;;;;;;;;-140.72;0.00;51810.56;4958800;28;19946;-68
2022/08/02 11:07:07;;;;;;;;;;;;;;;-140.72;0.00;51721.31;4959595;29;20057;-67
2022/08/02 11:09:33;;;;;;;;;;;;;;;-140.72;0.00;51794.34;4949481;29;19930;-68
2022/08/02 11:11:58;;;;;;;;;;;;;;;-140.72;0.00;51834.91;4962821;29;19923;-69
2022/08/02 11:14:24;;;;;;;;;;;;;;;-140.72;0.00;51836.94;4961714;28;19929;-69
2022/08/02 11:16:55;;;;;;;;;;;;;;;-140.72;0.00;51810.56;4961821;29;19973;-68
2022/08/02 11:19:21;;;;;;;;;;;;;;;-140.72;0.00;51847.09;4960109;28;20331;-68
2022/08/02 11:21:59;;;;;;;;;;;;;;;-140.72;0.00;51857.25;4958932;29;19974;-68
2022/08/02 11:24:27;;;;;;;;;;;;;;;-140.72;0.00;51818.69;4956485;29;20330;-69
2022/08/02 11:26:52;;;;;;;;;;;;;;;-140.72;0.00;51849.13;4956557;28;20274;-68
2022/08/02 11:29:17;;;;;;;;;;;;;;;-140.72;0.00;51834.91;4956382;29;19937;-68
2022/08/02 11:31:43;;;;;;;;;;;;;;;-140.72;0.00;51952.59;4956349;29;19919;-68
2022/08/02 11:34:09;;;;;;;;;;;;;;;-140.72;0.00;51881.59;4955138;28;19987;-69
2022/08/02 11:36:48;;;;;;;;;;;;;;;-140.72;0.00;51950.56;4950877;28;19926;-69
2022/08/02 11:39:15;;;;;;;;;;;;;;;-140.72;0.00;51877.53;4948603;29;20097;-69
2022/08/02 11:41:41;;;;;;;;;;;;;;;-140.72;0.00;51869.41;4969168;28;19918;-69
2022/08/02 11:44:06;;;;;;;;;;;;;;;-140.72;0.00;51822.75;4956592;28;19918;-69
2022/08/02 11:46:31;;;;;;;;;;;;;;;-140.72;0.00;51847.09;4948686;29;19922;-67
2022/08/02 11:48:57;;;;;;;;;;;;;;;-140.72;0.00;51871.44;4953583;28;19926;-69
2022/08/02 11:51:22;;;;;;;;;;;;;;;-140.72;0.00;51838.97;4955291;29;19926;-70
2022/08/02 11:53:50;;;;;;;;;;;;;;;-140.72;0.00;51794.34;4957211;29;20282;-69
2022/08/02 11:56:16;;;;;;;;;;;;;;;-140.72;0.00;51810.56;4965400;29;19941;-68
2022/08/02 11:58:59;;;;;;;;;;;;;;;-140.72;0.00;51770.00;4956256;28;20358;-68
2022/08/02 12:01:24;;;;;;;;;;;;;;;-140.72;0.00;51717.25;4956042;29;19923;-69
2022/08/02 12:03:49;;;;;;;;;;;;;;;-140.72;0.00;51668.56;4949916;28;20365;-68
2022/08/02 12:06:16;;;;;;;;;;;;;;;-140.72;0.00;51636.09;4950849;28;20353;-69
2022/08/02 12:08:42;;;;;;;;;;;;;;;-140.72;0.00;51678.72;4951876;29;19923;-68
2022/08/02 12:11:08;;;;;;;;;;;;;;;-140.72;0.00;51664.50;4955597;29;19982;-69
2022/08/02 12:13:43;;;;;;;;;;;;;;;-140.72;0.00;51686.81;4956940;28;19922;-68
2022/08/02 12:19:17;;;;;;;;;;;;;;;-140.72;0.00;51642.19;4958020;28;20006;-70
2022/08/02 12:21:39;;;;;;;;;;;;;;;-140.72;0.00;51701.03;4954607;29;20250;-69
2022/08/02 12:24:04;;;;;;;;;;;;;;;-140.72;0.00;51684.78;4956999;28;19922;-70
2022/08/02 12:26:29;;;;;;;;;;;;;;;-140.72;0.00;51672.63;4957430;28;19922;-69
2022/08/02 12:28:56;;;;;;;;;;;;;;;-140.72;0.00;51648.28;4956410;28;19919;-68
2022/08/02 12:31:37;;;;;;;;;;;;;;;-140.72;0.00;51696.97;4947314;28;19926;-68